Time;durP1;ratioP1;P1;durP2;ratioP2;P2;SDS_P1;SDS_P2;PMS_P1;PMS_P2;Temp;Humidity;BMP_temperature;BMP_pressure;BME280_temperature;BME280_humidity;BME280_pressure;Samples;Min_cycle;Max_cycle;Signal;HPM_P1;HPM_P2
2023/09/26 00:01:35;;;;;;;20.70;11.70;;;;;;;13.33;90.06;101128.49;133496;1300;22514;-73
2023/09/26 00:05:08;;;;;;;;;;;;;;;;;;;;;
2023/09/26 00:08:43;;;;;;;;;;;;;;;;;;;;;
2023/09/26 00:11:46;;;;;;;17.00;11.70;;;;;;;13.42;90.85;101126.83;133507;1301;22463;-72
2023/09/26 00:14:55;;;;;;;15.80;11.70;;;;;;;13.42;90.75;101125.42;133470;1301;22543;-72
2023/09/26 00:18:09;;;;;;;13.10;10.60;;;;;;;13.38;90.62;101126.02;133492;1303;22408;-73
2023/09/26 00:21:42;;;;;;;;;;;;;;;;;;;;;
2023/09/26 00:24:50;;;;;;;14.00;10.70;;;;;;;13.35;90.26;101124.75;133407;1301;22494;-72
2023/09/26 00:28:03;;;;;;;13.60;11.70;;;;;;;13.33;90.52;101121.87;133482;1301;22464;-73
2023/09/26 00:31:23;;;;;;;;;;;;;;;;;;;;;
2023/09/26 00:34:46;;;;;;;;;;;;;;;;;;;;;
2023/09/26 00:37:56;;;;;;;12.40;9.40;;;;;;;13.28;90.23;101124.73;133464;1301;22473;-73
2023/09/26 00:41:28;;;;;;;13.30;9.50;;;;;;;13.25;90.22;101124.84;133502;1301;22202;-72
2023/09/26 00:44:30;;;;;;;12.30;9.80;;;;;;;13.25;90.20;101120.21;133511;1303;22441;-73
2023/09/26 00:47:47;;;;;;;12.30;9.60;;;;;;;13.22;89.77;101124.64;133552;1300;23309;-72
2023/09/26 00:50:51;;;;;;;13.50;9.30;;;;;;;13.16;89.40;101125.09;133355;1301;22445;-72
2023/09/26 00:54:02;;;;;;;10.70;8.40;;;;;;;13.09;89.06;101125.10;133504;1302;22673;-72
2023/09/26 00:57:09;;;;;;;10.80;7.10;;;;;;;13.02;88.76;101122.59;133545;1301;22916;-73
2023/09/26 01:00:21;;;;;;;14.50;8.10;;;;;;;12.95;88.40;101123.11;133530;1301;22547;-72
2023/09/26 01:03:25;;;;;;;12.70;9.70;;;;;;;12.91;88.51;101121.07;133438;1303;24148;-72
2023/09/26 01:06:41;;;;;;;13.40;9.10;;;;;;;12.89;89.06;101121.41;133541;1293;22208;-74
2023/09/26 01:09:49;;;;;;;13.40;10.40;;;;;;;12.88;89.69;101117.64;133516;1302;23082;-74
2023/09/26 01:13:16;;;;;;;50.90;11.50;;;;;;;12.80;89.60;101115.13;133488;1301;22435;-72
2023/09/26 01:20:19;;;;;;;13.70;8.70;;;;;;;12.70;89.52;101114.00;133436;1307;23135;-72
2023/09/26 01:23:28;;;;;;;11.90;8.30;;;;;;;12.65;89.01;101113.31;133321;1300;22330;-73
2023/09/26 01:26:59;;;;;;;13.40;9.20;;;;;;;12.62;88.80;101115.38;133278;1301;22936;-72
2023/09/26 01:30:15;;;;;;;16.40;11.30;;;;;;;12.60;88.69;101113.14;133475;1302;22500;-72
2023/09/26 01:33:38;;;;;;;43.90;8.40;;;;;;;12.56;88.97;101112.91;133482;1304;22766;-72
2023/09/26 01:37:00;;;;;;;13.30;9.60;;;;;;;12.55;89.13;101112.33;133543;1306;22454;-72
2023/09/26 01:40:05;;;;;;;20.00;11.10;;;;;;;12.53;89.20;101107.90;133548;1300;23166;-73
2023/09/26 01:43:41;;;;;;;;;;;;;;;;;;;;;
2023/09/26 01:46:50;;;;;;;23.80;9.30;;;;;;;12.45;89.73;101106.44;133483;1303;22396;-72
2023/09/26 01:49:54;;;;;;;64.50;9.10;;;;;;;12.40;89.95;101103.90;133539;1307;22467;-73
2023/09/26 01:53:14;;;;;;;17.90;7.90;;;;;;;12.35;90.06;101103.14;133535;1303;22590;-72
2023/09/26 01:56:24;;;;;;;11.50;8.80;;;;;;;12.29;89.86;101098.77;133543;1307;22434;-72
2023/09/26 01:59:36;;;;;;;13.90;10.50;;;;;;;12.23;89.25;101096.79;133575;1300;22205;-72
2023/09/26 02:03:13;;;;;;;25.40;10.00;;;;;;;12.19;89.50;101097.88;133553;1301;22229;-73
2023/09/26 02:06:27;;;;;;;;;;;;;;;;;;;;;
2023/09/26 02:09:51;;;;;;;30.30;10.50;;;;;;;12.21;90.29;101088.81;133561;1303;23346;-72
2023/09/26 02:13:06;;;;;;;21.10;13.30;;;;;;;12.22;91.12;101083.73;133538;1303;22436;-73
2023/09/26 02:16:11;;;;;;;15.90;11.60;;;;;;;12.25;91.44;101083.45;133382;1302;22443;-72
2023/09/26 02:23:16;;;;;;;19.70;13.30;;;;;;;12.33;92.34;101078.51;133398;1303;22474;-72
2023/09/26 02:26:21;;;;;;;17.10;13.50;;;;;;;12.37;92.72;101078.70;133535;1302;22228;-72
2023/09/26 02:29:29;;;;;;;19.90;14.90;;;;;;;12.41;92.91;101081.26;133560;1302;22616;-72
2023/09/26 02:32:37;;;;;;;17.50;13.40;;;;;;;12.43;92.93;101078.57;133544;1301;23093;-72
2023/09/26 02:35:54;;;;;;;19.40;14.70;;;;;;;12.44;93.32;101078.15;133509;1303;22413;-72
2023/09/26 02:39:00;;;;;;;20.70;15.10;;;;;;;12.48;93.69;101079.11;133536;1301;22627;-73
2023/09/26 02:42:03;;;;;;;21.70;15.70;;;;;;;12.52;94.20;101080.98;133376;1300;22566;-73
2023/09/26 02:45:38;;;;;;;;;;;;;;;;;;;;;
2023/09/26 02:48:45;;;;;;;25.40;17.00;;;;;;;12.64;95.53;101073.79;133479;1301;22422;-72
2023/09/26 02:51:51;;;;;;;25.60;17.40;;;;;;;12.69;95.93;101076.98;133526;1301;22868;-72
2023/09/26 02:54:55;;;;;;;24.00;17.60;;;;;;;12.71;95.92;101077.27;133538;1300;22397;-72
2023/09/26 02:58:01;;;;;;;22.60;17.20;;;;;;;12.72;95.90;101077.41;133399;1303;22978;-72
2023/09/26 03:01:03;;;;;;;30.30;18.40;;;;;;;12.71;95.82;101073.44;133555;1300;22463;-72
2023/09/26 03:04:07;;;;;;;27.30;19.20;;;;;;;12.71;96.02;101075.50;133550;1308;23265;-73
2023/09/26 03:07:24;;;;;;;;;;;;;;;;;;;;;
2023/09/26 03:11:03;;;;;;;25.20;18.80;;;;;;;12.77;96.35;101077.10;133543;1303;23100;-74
2023/09/26 03:15:02;;;;;;;;;;;;;;;;;;;;;
2023/09/26 03:18:22;;;;;;;;;;;;;;;;;;;;;
2023/09/26 03:21:56;;;;;;;27.60;19.10;;;;;;;12.90;97.65;101079.67;133437;1301;22504;-72
2023/09/26 03:25:57;;;;;;;20.50;17.00;;;;;;;12.93;97.94;101075.04;133537;1303;22281;-73
2023/09/26 03:30:09;;;;;;;25.70;18.30;;;;;;;12.96;98.05;101072.98;133559;1301;23346;-73
2023/09/26 03:33:10;;;;;;;30.00;20.30;;;;;;;12.97;97.96;101076.55;133366;1304;22343;-72
2023/09/26 03:36:30;;;;;;;;;;;;;;;;;;;;;
2023/09/26 03:40:47;;;;;;;28.20;20.50;;;;;;;13.00;98.12;101075.53;133549;1301;23022;-73
2023/09/26 03:43:50;;;;;;;28.10;19.70;;;;;;;13.00;98.12;101075.89;133475;1302;22580;-74
2023/09/26 03:47:09;;;;;;;23.40;18.40;;;;;;;12.99;97.91;101076.86;133412;1303;22508;-72
2023/09/26 03:50:40;;;;;;;30.80;18.20;;;;;;;12.97;98.01;101080.67;133522;1301;22554;-72
2023/09/26 03:54:10;;;;;;;26.20;18.70;;;;;;;12.93;98.05;101078.05;133533;1294;22462;-73
2023/09/26 03:57:20;;;;;;;21.50;18.00;;;;;;;12.88;98.18;101075.40;133523;1301;23626;-72
2023/09/26 04:01:04;;;;;;;;;;;;;;;;;;;;;
2023/09/26 04:04:21;;;;;;;22.70;18.20;;;;;;;12.82;98.33;101073.04;133515;1302;22447;-73
2023/09/26 04:08:32;;;;;;;24.50;18.40;;;;;;;12.81;98.36;101072.45;133464;1300;22377;-72
2023/09/26 04:12:57;;;;;;;25.10;19.80;;;;;;;12.82;98.71;101075.13;133537;1301;23058;-73
2023/09/26 04:15:49;;;;;;;22.80;18.60;;;;;;;12.83;98.84;101076.23;133517;1303;22281;-72
2023/09/26 04:19:00;;;;;;;25.10;19.90;;;;;;;12.82;98.95;101080.33;133562;1304;23339;-72
2023/09/26 04:22:34;;;;;;;;;;;;;;;;;;;;;
2023/09/26 04:25:52;;;;;;;;;;;;;;;;;;;;;
2023/09/26 04:28:53;;;;;;;35.70;20.00;;;;;;;12.68;98.49;101083.27;133561;1304;22438;-72
2023/09/26 04:31:57;;;;;;;24.90;17.70;;;;;;;12.65;98.64;101082.95;133540;1301;22497;-72
2023/09/26 04:35:01;;;;;;;28.90;19.90;;;;;;;12.64;98.96;101081.05;133611;1303;23173;-72
2023/09/26 04:38:31;;;;;;;26.60;19.70;;;;;;;12.65;99.09;101082.59;133608;1303;22406;-75
2023/09/26 04:41:35;;;;;;;28.60;19.30;;;;;;;12.64;99.03;101081.62;133563;1307;22649;-72
2023/09/26 04:44:41;;;;;;;27.80;18.60;;;;;;;12.63;99.04;101079.73;133667;1301;22431;-72
2023/09/26 04:47:49;;;;;;;59.20;19.10;;;;;;;12.63;99.25;101079.94;133485;1302;22285;-73
2023/09/26 04:51:31;;;;;;;35.50;17.70;;;;;;;12.63;99.66;101079.75;133411;1301;23445;-71
2023/09/26 04:54:42;;;;;;;37.80;18.50;;;;;;;12.63;99.86;101078.84;133291;1302;22440;-73
2023/09/26 04:57:52;;;;;;;52.60;20.40;;;;;;;12.64;99.98;101083.04;133524;1302;22413;-72
2023/09/26 05:01:24;;;;;;;;;;;;;;;;;;;;;
2023/09/26 05:04:48;;;;;;;81.90;20.10;;;;;;;12.68;100.00;101080.84;133527;1303;23507;-73
2023/09/26 05:08:07;;;;;;;85.80;21.30;;;;;;;12.69;100.00;101082.84;133371;1303;22493;-73
2023/09/26 05:11:40;;;;;;;100.00;20.70;;;;;;;12.69;100.00;101083.20;133522;1308;22414;-73
2023/09/26 05:14:55;;;;;;;100.60;21.10;;;;;;;12.69;100.00;101084.60;133534;1303;22271;-72
2023/09/26 05:17:57;;;;;;;59.50;19.10;;;;;;;12.70;100.00;101082.25;133551;1303;22428;-73
2023/09/26 05:21:04;;;;;;;83.70;20.30;;;;;;;12.70;100.00;101080.64;133403;1301;22243;-76
2023/09/26 05:24:22;;;;;;;88.90;20.40;;;;;;;12.71;100.00;101082.10;133188;1303;22255;-73
2023/09/26 05:27:28;;;;;;;56.10;20.30;;;;;;;12.77;100.00;101084.67;133423;1300;22473;-72
2023/09/26 05:30:34;;;;;;;39.10;21.30;;;;;;;12.85;100.00;101081.88;133341;1293;22571;-72
2023/09/26 05:33:40;;;;;;;36.70;18.60;;;;;;;12.96;100.00;101080.06;133518;1303;22452;-72
2023/09/26 05:36:47;;;;;;;39.20;20.40;;;;;;;13.08;100.00;101085.92;133432;1302;22454;-71
2023/09/26 05:40:06;;;;;;;32.70;21.10;;;;;;;13.19;100.00;101083.18;133379;1301;22402;-73
2023/09/26 05:43:17;;;;;;;25.50;20.50;;;;;;;13.35;100.00;101086.86;133232;1301;22498;-71
2023/09/26 05:46:24;;;;;;;33.20;22.00;;;;;;;13.57;100.00;101083.30;133460;1301;23104;-72
2023/09/26 05:49:37;;;;;;;28.40;21.10;;;;;;;13.79;100.00;101081.70;133584;1302;22214;-72
2023/09/26 05:53:23;;;;;;;26.10;21.00;;;;;;;13.97;100.00;101083.30;133583;1305;22972;-74
2023/09/26 05:56:29;;;;;;;29.20;20.20;;;;;;;14.29;100.00;101082.43;133574;1300;23221;-75
2023/09/26 05:59:41;;;;;;;25.40;20.10;;;;;;;14.60;100.00;101085.20;133580;1301;22548;-73
2023/09/26 06:03:08;;;;;;;23.60;19.10;;;;;;;14.92;99.95;101091.58;133544;1300;23068;-73
2023/09/26 06:06:24;;;;;;;23.40;19.00;;;;;;;15.23;99.43;101084.94;133563;1303;22466;-73
2023/09/26 06:09:48;;;;;;;21.90;17.50;;;;;;;15.43;98.79;101085.30;133374;1303;22973;-73
2023/09/26 06:13:05;;;;;;;22.50;17.30;;;;;;;15.71;98.48;101084.88;133578;1307;22908;-72
2023/09/26 06:16:14;;;;;;;22.40;18.30;;;;;;;15.98;97.77;101087.77;133578;1303;23110;-73
2023/09/26 06:19:31;;;;;;;25.40;17.40;;;;;;;16.07;96.50;101089.14;133588;1304;23152;-73
2023/09/26 06:22:57;;;;;;;20.80;17.30;;;;;;;16.02;95.38;101082.89;133382;1303;22397;-72
2023/09/26 06:26:18;;;;;;;22.30;18.20;;;;;;;15.89;95.12;101084.77;133585;1300;22443;-74
2023/09/26 06:29:33;;;;;;;25.80;18.80;;;;;;;15.76;95.22;101085.85;133587;1303;22278;-74
2023/09/26 06:33:09;;;;;;;27.00;19.30;;;;;;;15.90;96.12;101088.50;133569;1301;22440;-73
2023/09/26 06:36:20;;;;;;;28.10;20.60;;;;;;;16.16;96.45;101086.56;133565;1304;23200;-74
2023/09/26 06:39:44;;;;;;;;;;;;;;;;;;;;;
2023/09/26 06:42:48;;;;;;;27.30;21.00;;;;;;;16.43;95.92;101084.95;133605;1301;22468;-73
2023/09/26 06:46:00;;;;;;;25.40;20.00;;;;;;;16.72;96.07;101081.30;133575;1302;22474;-75
2023/09/26 06:49:46;;;;;;;30.20;21.00;;;;;;;17.08;95.61;101083.05;133438;1301;22238;-74
2023/09/26 06:52:53;;;;;;;25.30;20.20;;;;;;;17.42;95.10;101082.00;133303;1301;371933;-73
2023/09/26 06:56:25;;;;;;;31.50;23.00;;;;;;;17.71;94.48;101077.20;133351;1301;22440;-74
2023/09/26 06:59:50;;;;;;;;;;;;;;;;;;;;;
2023/09/26 07:03:47;;;;;;;;;;;;;;;;;;;;;
2023/09/26 07:07:00;;;;;;;27.30;22.60;;;;;;;18.49;91.83;101076.61;133378;1301;22342;-74
2023/09/26 07:10:15;;;;;;;24.70;20.10;;;;;;;18.69;91.41;101080.95;133552;1302;22432;-73
2023/09/26 07:13:47;;;;;;;29.50;22.10;;;;;;;18.78;90.32;101084.73;133558;1301;22454;-74
2023/09/26 07:17:53;;;;;;;35.60;23.10;;;;;;;18.95;90.24;101083.96;133553;1308;22393;-75
2023/09/26 07:20:53;;;;;;;29.70;22.10;;;;;;;19.30;90.53;101084.67;133487;1301;22527;-74
2023/09/26 07:24:38;;;;;;;24.60;21.50;;;;;;;19.54;89.12;101083.90;133373;1301;23213;-74
2023/09/26 07:27:46;;;;;;;25.90;22.00;;;;;;;19.45;88.04;101082.83;133558;1301;22387;-74
2023/09/26 07:30:55;;;;;;;28.60;21.30;;;;;;;19.16;86.90;101089.05;133360;1301;22457;-74
2023/09/26 07:33:56;;;;;;;29.10;21.80;;;;;;;18.79;86.84;101084.91;133536;1302;22239;-73
2023/09/26 07:37:26;;;;;;;24.20;19.20;;;;;;;18.54;87.16;101088.64;133576;1301;22416;-73
2023/09/26 07:41:06;;;;;;;;;;;;;;;;;;;;;
2023/09/26 07:45:22;;;;;;;;;;;;;;;;;;;;;
2023/09/26 07:49:13;;;;;;;29.00;20.80;;;;;;;17.95;88.34;101095.16;132968;1306;22406;-74
2023/09/26 07:52:04;;;;;;;28.40;21.70;;;;;;;17.87;88.67;101095.27;132900;1307;23204;-74
2023/09/26 07:55:48;;;;;;;26.60;19.70;;;;;;;17.76;88.59;101095.35;132974;1306;22383;-73
2023/09/26 07:59:48;;;;;;;;;;;;;;;;;;;;;
2023/09/26 08:03:16;;;;;;;30.40;21.60;;;;;;;17.55;88.94;101102.75;132985;1303;22617;-73
2023/09/26 08:06:45;;;;;;;30.10;23.40;;;;;;;17.44;88.91;101100.84;132929;1312;22249;-74
2023/09/26 08:10:02;;;;;;;;;;;;;;;;;;;;;
2023/09/26 08:13:39;;;;;;;31.00;24.50;;;;;;;17.26;89.82;101097.97;132979;1305;23151;-75
2023/09/26 08:17:38;;;;;;;33.00;24.20;;;;;;;17.29;90.25;101096.45;133536;1301;23178;-73
2023/09/26 08:20:55;;;;;;;27.90;21.30;;;;;;;17.29;90.06;101100.85;133526;1303;23062;-73
2023/09/26 08:24:32;;;;;;;31.60;24.00;;;;;;;17.22;89.88;101099.24;133550;1297;23111;-74
2023/09/26 08:28:51;;;;;;;29.70;23.60;;;;;;;17.16;90.25;101101.64;133534;1300;22326;-76
2023/09/26 08:32:28;;;;;;;;;;;;;;;;;;;;;
2023/09/26 08:40:17;;;;;;;34.20;23.70;;;;;;;17.16;90.89;101096.69;133173;1307;22152;-74
2023/09/26 08:44:22;;;;;;;;;;;;;;;;;;;;;
2023/09/26 08:47:39;;;;;;;29.10;22.50;;;;;;;17.33;90.81;101091.91;133169;1308;22247;-75
2023/09/26 08:51:51;;;;;;;30.50;22.20;;;;;;;17.41;91.05;101092.59;133313;1308;22687;-73
2023/09/26 08:55:19;;;;;;;;;;;;;;;;;;;;;
2023/09/26 08:58:55;;;;;;;31.00;23.60;;;;;;;17.49;90.54;101093.14;133370;1300;22391;-74
2023/09/26 09:02:12;;;;;;;33.50;23.80;;;;;;;17.43;90.33;101095.50;133281;1307;23146;-73
2023/09/26 09:05:42;;;;;;;32.80;23.70;;;;;;;17.39;90.57;101101.11;133444;1307;23200;-73
2023/09/26 09:09:05;;;;;;;33.40;23.60;;;;;;;17.41;90.72;101097.26;133449;1302;22439;-73
2023/09/26 09:12:49;;;;;;;30.80;23.60;;;;;;;17.45;90.57;101097.48;133409;1303;22467;-73
2023/09/26 09:16:36;;;;;;;31.60;22.70;;;;;;;17.42;90.39;101095.91;133270;1301;22910;-74
2023/09/26 09:20:27;;;;;;;30.70;22.00;;;;;;;17.39;90.41;101094.34;133354;1301;22379;-73
2023/09/26 09:24:20;;;;;;;27.60;21.70;;;;;;;17.37;90.58;101095.48;133319;1304;22447;-73
2023/09/26 09:27:42;;;;;;;;;;;;;;;;;;;;;
2023/09/26 09:30:59;;;;;;;32.70;23.40;;;;;;;17.42;90.74;101091.63;133400;1306;22421;-72
2023/09/26 09:34:11;;;;;;;;;;;;;;;;;;;;;
2023/09/26 09:37:22;;;;;;;28.10;21.10;;;;;;;17.46;90.63;101092.54;133335;1304;22250;-73
2023/09/26 09:40:35;;;;;;;30.30;21.40;;;;;;;17.53;90.83;101095.02;133398;1302;23059;-71
2023/09/26 09:43:55;;;;;;;31.80;22.30;;;;;;;17.56;90.41;101094.28;133291;1302;22437;-72
2023/09/26 09:47:17;;;;;;;25.70;20.20;;;;;;;17.54;90.53;101093.58;133447;1303;22896;-72
2023/09/26 09:50:25;;;;;;;30.70;21.70;;;;;;;17.60;90.74;101094.95;133529;1302;23194;-74
2023/09/26 09:53:41;;;;;;;27.90;19.70;;;;;;;17.68;90.62;101094.88;133586;1301;22287;-73
2023/09/26 09:57:32;;;;;;;30.40;21.30;;;;;;;17.74;90.31;101092.39;133552;1303;22404;-72
2023/09/26 10:00:33;;;;;;;30.80;22.10;;;;;;;17.79;90.31;101091.84;133477;1307;22616;-71
2023/09/26 10:04:13;;;;;;;;;;;;;;;;;;;;;
2023/09/26 10:07:30;;;;;;;27.00;20.30;;;;;;;17.87;90.18;101084.20;133372;1304;22552;-73
2023/09/26 10:11:03;;;;;;;29.10;20.10;;;;;;;17.86;89.96;101085.16;133566;1301;22905;-73
2023/09/26 10:14:47;;;;;;;28.90;19.70;;;;;;;17.83;89.75;101090.58;133527;1301;23005;-72
2023/09/26 10:18:07;;;;;;;27.10;20.20;;;;;;;17.79;89.68;101084.16;133560;1302;22554;-73
2023/09/26 10:22:01;;;;;;;26.20;20.90;;;;;;;17.76;89.90;101083.08;133514;1301;23172;-72
2023/09/26 10:25:23;;;;;;;26.50;20.40;;;;;;;17.76;89.75;101084.28;133541;1303;23263;-73
2023/09/26 10:28:43;;;;;;;25.50;20.30;;;;;;;17.73;89.64;101078.13;133417;1301;22493;-73
2023/09/26 10:32:16;;;;;;;24.70;19.50;;;;;;;17.73;89.67;101073.58;133546;1301;22468;-73
2023/09/26 10:35:47;;;;;;;28.10;21.70;;;;;;;17.79;89.77;101070.13;133536;1298;23169;-75
2023/09/26 10:40:00;;;;;;;28.30;19.90;;;;;;;17.84;89.71;101073.05;133315;1307;22465;-74
2023/09/26 10:43:06;;;;;;;28.10;20.20;;;;;;;17.88;89.30;101068.98;133045;1307;22433;-73
2023/09/26 10:46:25;;;;;;;23.60;17.40;;;;;;;17.87;89.15;101065.78;133555;1298;22293;-72
2023/09/26 10:49:40;;;;;;;;;;;;;;;;;;;;;
2023/09/26 10:53:08;;;;;;;26.00;19.20;;;;;;;17.81;89.21;101060.53;133392;1304;22785;-73
2023/09/26 10:56:24;;;;;;;22.20;17.40;;;;;;;17.81;89.23;101061.48;133442;1308;23391;-73
2023/09/26 11:03:20;;;;;;;28.00;19.90;;;;;;;17.87;89.32;101062.08;133298;1302;22201;-76
2023/09/26 11:06:53;;;;;;;28.70;20.10;;;;;;;17.95;89.40;101059.96;133378;1307;22213;-74
2023/09/26 11:10:17;;;;;;;25.60;20.20;;;;;;;18.01;89.30;101059.34;133375;1306;22399;-72
2023/09/26 11:13:25;;;;;;;25.30;18.90;;;;;;;18.10;89.36;101053.90;133483;1301;22376;-73
2023/09/26 11:16:42;;;;;;;;;;;;;;;;;;;;;
2023/09/26 11:20:38;;;;;;;24.50;19.30;;;;;;;18.34;88.50;101052.98;133399;1301;22430;-75
2023/09/26 11:24:27;;;;;;;28.70;18.20;;;;;;;18.34;88.27;101052.11;133386;1308;22400;-73
2023/09/26 11:28:17;;;;;;;25.90;18.60;;;;;;;18.36;88.50;101048.41;133409;1301;22402;-73
2023/09/26 11:32:06;;;;;;;24.60;18.90;;;;;;;18.56;88.75;101041.13;133272;1302;22231;-74
2023/09/26 11:35:31;;;;;;;24.70;17.80;;;;;;;18.75;88.42;101039.30;133427;1303;22712;-74
2023/09/26 11:39:42;;;;;;;27.70;19.20;;;;;;;18.83;87.79;101033.32;133442;1302;22322;-76
2023/09/26 11:47:09;;;;;;;26.50;17.10;;;;;;;19.03;86.75;101030.36;133299;1307;22373;-73
2023/09/26 11:50:40;;;;;;;;;;;;;;;;;;;;;
2023/09/26 11:54:16;;;;;;;;;;;;;;;;;;;;;
2023/09/26 11:58:20;;;;;;;20.50;15.70;;;;;;;19.13;85.98;101023.61;133368;1303;23030;-74
2023/09/26 12:02:00;;;;;;;22.80;15.80;;;;;;;19.20;85.74;101020.90;133385;1304;22538;-75
2023/09/26 12:05:44;;;;;;;23.30;15.30;;;;;;;19.20;85.64;101013.08;133483;1303;22285;-74
2023/09/26 12:09:09;;;;;;;22.40;15.40;;;;;;;19.32;85.73;101011.84;133382;1309;23222;-73
2023/09/26 12:12:30;;;;;;;21.40;14.20;;;;;;;19.54;85.64;101010.73;133321;1302;22385;-73
2023/09/26 12:15:54;;;;;;;21.10;14.20;;;;;;;19.72;85.49;101009.09;133421;1302;22420;-74
2023/09/26 12:19:49;;;;;;;;;;;;;;;;;;;;;
2023/09/26 12:23:38;;;;;;;20.70;14.00;;;;;;;20.04;84.06;101003.39;133225;1301;22957;-74
2023/09/26 12:27:00;;;;;;;20.80;14.10;;;;;;;20.18;83.88;100999.83;133480;1301;22480;-75
2023/09/26 12:34:17;;;;;;;19.60;13.60;;;;;;;20.36;82.96;100998.75;133401;1303;22326;-75
2023/09/26 12:37:41;;;;;;;19.40;13.90;;;;;;;20.42;82.23;100991.58;133359;1302;23632;-75
2023/09/26 12:40:57;;;;;;;19.10;14.10;;;;;;;20.46;82.20;100988.13;133384;1294;22406;-73
2023/09/26 12:44:03;;;;;;;20.40;14.60;;;;;;;20.49;81.82;100984.76;133314;1301;22399;-73
2023/09/26 12:47:13;;;;;;;21.70;15.40;;;;;;;20.53;81.63;100980.88;133488;1297;22480;-72
2023/09/26 12:50:15;;;;;;;19.10;14.00;;;;;;;20.58;81.30;100978.34;133511;1301;22226;-74
2023/09/26 12:53:36;;;;;;;20.00;14.00;;;;;;;20.56;80.59;100975.15;133533;1301;22406;-73
2023/09/26 12:56:45;;;;;;;21.10;14.70;;;;;;;20.58;80.43;100965.97;133298;1301;22458;-73
2023/09/26 12:59:58;;;;;;;20.70;14.00;;;;;;;20.63;80.23;100964.70;133381;1303;23105;-73
2023/09/26 13:03:27;;;;;;;19.60;14.50;;;;;;;20.69;80.15;100960.72;133480;1307;23720;-74
2023/09/26 13:06:51;;;;;;;19.00;14.50;;;;;;;20.73;79.92;100957.21;133577;1301;22451;-76
2023/09/26 13:10:09;;;;;;;21.00;15.40;;;;;;;20.77;79.74;100952.52;133525;1304;22847;-72
2023/09/26 13:13:21;;;;;;;;;;;;;;;;;;;;;
2023/09/26 13:16:29;;;;;;;23.80;16.50;;;;;;;20.87;79.49;100947.04;133538;1305;22398;-74
2023/09/26 13:19:33;;;;;;;24.50;17.10;;;;;;;20.87;79.34;100946.90;133398;1294;23229;-73
2023/09/26 13:22:38;;;;;;;26.80;17.20;;;;;;;20.89;79.72;100942.25;133512;1301;22352;-72
2023/09/26 13:25:50;;;;;;;25.10;18.00;;;;;;;20.97;79.61;100943.29;133526;1300;22366;-73
2023/09/26 13:28:54;;;;;;;26.50;17.90;;;;;;;21.05;79.63;100943.05;133525;1303;22980;-73
2023/09/26 13:32:01;;;;;;;26.80;17.60;;;;;;;21.10;79.20;100940.02;133388;1303;22231;-73
2023/09/26 13:35:14;;;;;;;26.20;16.50;;;;;;;21.11;79.26;100936.48;133533;1301;22362;-72
2023/09/26 13:38:24;;;;;;;23.60;17.20;;;;;;;21.19;79.47;100933.38;133525;1303;22511;-73
2023/09/26 13:41:41;;;;;;;23.40;17.00;;;;;;;21.29;79.37;100929.23;133531;1301;22572;-72
2023/09/26 13:44:50;;;;;;;22.30;16.60;;;;;;;21.33;78.82;100923.30;133540;1302;22425;-73
2023/09/26 13:47:54;;;;;;;23.50;16.10;;;;;;;21.32;78.68;100921.58;133307;1301;22284;-72
2023/09/26 13:50:58;;;;;;;23.60;16.20;;;;;;;21.38;78.78;100921.89;133530;1302;22399;-73
2023/09/26 13:54:09;;;;;;;19.70;14.90;;;;;;;21.41;78.18;100926.91;133510;1303;22265;-73
2023/09/26 13:57:15;;;;;;;23.90;14.50;;;;;;;21.40;77.54;100924.63;133514;1304;22445;-73
2023/09/26 14:00:22;;;;;;;23.20;15.90;;;;;;;21.37;77.10;100923.98;133533;1301;22352;-73
2023/09/26 14:03:29;;;;;;;22.40;15.60;;;;;;;21.35;77.36;100920.61;133386;1303;22288;-72
2023/09/26 14:06:54;;;;;;;22.40;15.10;;;;;;;21.42;77.67;100921.50;133394;1303;22406;-72
2023/09/26 14:10:07;;;;;;;21.30;14.30;;;;;;;21.56;77.44;100921.65;133520;1301;22474;-73
2023/09/26 14:13:11;;;;;;;21.20;15.30;;;;;;;21.65;76.83;100918.29;133621;1301;22448;-72
2023/09/26 14:16:20;;;;;;;21.00;14.20;;;;;;;21.67;77.01;100915.36;133549;1303;22386;-73
2023/09/26 14:19:33;;;;;;;18.80;13.90;;;;;;;21.68;76.34;100916.56;133537;1306;23225;-73
2023/09/26 14:22:45;;;;;;;18.20;14.00;;;;;;;21.63;76.12;100913.98;133536;1304;23690;-74
2023/09/26 14:25:58;;;;;;;20.30;14.20;;;;;;;21.67;76.16;100907.52;133420;1301;22415;-75
2023/09/26 14:29:27;;;;;;;17.30;13.80;;;;;;;21.72;76.08;100904.23;133556;1300;22419;-72
2023/09/26 14:35:59;;;;;;;20.50;14.10;;;;;;;21.77;76.10;100901.70;133537;1293;22226;-72
2023/09/26 14:39:03;;;;;;;20.10;13.90;;;;;;;21.72;75.59;100898.78;133433;1303;22430;-72
2023/09/26 14:42:10;;;;;;;17.10;12.90;;;;;;;21.69;75.91;100898.30;133529;1307;23118;-73
2023/09/26 14:45:30;;;;;;;18.00;13.60;;;;;;;21.69;75.82;100893.92;133386;1302;22431;-75
2023/09/26 14:48:54;;;;;;;16.30;12.80;;;;;;;21.67;75.51;100896.13;133348;1301;22402;-74
2023/09/26 14:52:58;;;;;;;;;;;;;;;;;;;;;
2023/09/26 14:56:45;;;;;;;18.10;13.00;;;;;;;21.62;75.65;100890.98;133324;1304;23579;-74
2023/09/26 14:59:49;;;;;;;17.40;13.80;;;;;;;21.62;75.59;100887.28;133453;1301;22543;-75
2023/09/26 15:03:34;;;;;;;20.50;14.20;;;;;;;21.63;75.41;100882.62;133383;1301;22429;-74
2023/09/26 15:10:47;;;;;;;;;;;;;;;;;;;;;
2023/09/26 15:14:16;;;;;;;15.20;13.40;;;;;;;21.57;75.35;100878.27;133512;1302;22481;-74
2023/09/26 15:18:13;;;;;;;20.80;14.40;;;;;;;21.55;75.34;100875.63;133528;1301;22337;-74
2023/09/26 15:21:34;;;;;;;24.20;15.20;;;;;;;21.53;75.65;100873.73;133252;1303;22383;-74
2023/09/26 15:24:43;;;;;;;20.10;14.20;;;;;;;21.51;75.76;100868.42;133552;1308;23024;-75
2023/09/26 15:28:14;;;;;;;;;;;;;;;;;;;;;
2023/09/26 15:31:36;;;;;;;19.00;14.00;;;;;;;21.49;76.12;100859.05;133451;1301;22402;-74
2023/09/26 15:34:55;;;;;;;;;;;;;;;;;;;;;
2023/09/26 15:38:00;;;;;;;22.60;13.50;;;;;;;21.43;76.55;100859.61;133428;1301;22465;-73
2023/09/26 15:41:57;;;;;;;16.60;12.60;;;;;;;21.40;76.61;100858.80;133497;1301;22235;-73
2023/09/26 15:49:47;;;;;;;16.90;13.80;;;;;;;21.33;76.85;100861.20;133447;1300;22425;-78
2023/09/26 15:53:18;;;;;;;;;;;;;;;;;;;;;
2023/09/26 15:57:25;;;;;;;;;;;;;;;;;;;;;
2023/09/26 16:01:27;;;;;;;18.80;13.30;;;;;;;21.24;77.14;100862.13;133311;1301;22448;-75
2023/09/26 16:04:55;;;;;;;19.00;13.50;;;;;;;21.15;77.25;100864.15;133261;1301;23204;-78
2023/09/26 16:12:52;;;;;;;18.20;14.00;;;;;;;20.88;77.68;100865.87;133315;1307;22459;-75
2023/09/26 16:16:22;;;;;;;;;;;;;;;;;;;;;
2023/09/26 16:19:56;;;;;;;;;;;;;;;;;;;;;
2023/09/26 16:23:13;;;;;;;18.70;14.80;;;;;;;20.59;78.44;100866.84;133382;1301;22552;-74
2023/09/26 16:26:29;;;;;;;;;;;;;;;;;;;;;
2023/09/26 16:29:51;;;;;;;21.90;15.90;;;;;;;20.43;78.77;100868.79;133434;1303;22387;-75
2023/09/26 16:33:02;;;;;;;19.10;14.70;;;;;;;20.34;78.92;100870.66;133322;1303;22276;-75
2023/09/26 16:36:43;;;;;;;20.10;14.70;;;;;;;20.24;79.08;100869.90;133453;1302;23149;-75
2023/09/26 16:40:13;;;;;;;;;;;;;;;;;;;;;
2023/09/26 16:44:21;;;;;;;20.60;15.00;;;;;;;19.89;79.56;100872.83;133488;1303;23059;-75
2023/09/26 16:47:57;;;;;;;19.90;14.40;;;;;;;19.72;79.86;100871.64;133444;1301;22445;-75
2023/09/26 16:51:08;;;;;;;18.50;14.50;;;;;;;19.52;79.82;100877.14;133506;1305;23062;-74
2023/09/26 16:54:17;;;;;;;;;;;;;;;19.38;80.20;100874.61;133549;1301;22486;-75
2023/09/26 16:57:35;;;;;;;22.70;15.40;;;;;;;19.19;80.43;100873.64;133542;1303;23180;-75
2023/09/26 17:01:07;;;;;;;22.90;15.40;;;;;;;19.09;80.75;100876.77;133427;1307;22456;-75
2023/09/26 17:04:22;;;;;;;19.60;15.30;;;;;;;18.98;80.97;100879.56;133555;1301;22385;-75
2023/09/26 17:07:31;;;;;;;27.00;17.50;;;;;;;18.87;81.09;100879.24;133532;1301;22488;-75
2023/09/26 17:11:05;;;;;;;22.20;16.60;;;;;;;18.76;81.73;100879.70;133572;1301;23164;-75
2023/09/26 17:14:28;;;;;;;23.00;16.30;;;;;;;18.65;82.39;100879.06;133573;1303;22530;-74
2023/09/26 17:17:43;;;;;;;;;;;;;;;;;;;;;